sensor_id;sensor_type;location;lat;lon;timestamp;pressure;altitude;pressure_sealevel;temperature;humidity
45888;BME280;31595;51.418;7.572;2023-01-24T00:02:10;102331.69;;;5.99;59.21
45888;BME280;31595;51.418;7.572;2023-01-24T00:04:38;102323.75;;;6.03;59.14
45888;BME280;31595;51.418;7.572;2023-01-24T00:07:06;102328.91;;;5.99;58.79
45888;BME280;31595;51.418;7.572;2023-01-24T00:09:33;102323.56;;;5.86;58.90
45888;BME280;31595;51.418;7.572;2023-01-24T00:12:00;102321.88;;;5.85;59.09
45888;BME280;31595;51.418;7.572;2023-01-24T00:14:27;102328.63;;;5.89;59.57
45888;BME280;31595;51.418;7.572;2023-01-24T00:16:55;102329.63;;;5.95;59.44
45888;BME280;31595;51.418;7.572;2023-01-24T00:19:22;102329.13;;;5.98;59.63
45888;BME280;31595;51.418;7.572;2023-01-24T00:21:51;102324.00;;;6.01;59.32
45888;BME280;31595;51.418;7.572;2023-01-24T00:24:18;102324.59;;;6.03;59.30
45888;BME280;31595;51.418;7.572;2023-01-24T00:26:45;102324.00;;;6.01;59.23
45888;BME280;31595;51.418;7.572;2023-01-24T00:29:15;102329.53;;;6.01;58.92
45888;BME280;31595;51.418;7.572;2023-01-24T00:31:46;102324.94;;;5.95;58.86
45888;BME280;31595;51.418;7.572;2023-01-24T00:34:13;102320.13;;;6.02;58.89
45888;BME280;31595;51.418;7.572;2023-01-24T00:36:41;102320.50;;;6.06;58.72
45888;BME280;31595;51.418;7.572;2023-01-24T00:39:10;102324.09;;;6.06;58.91
45888;BME280;31595;51.418;7.572;2023-01-24T00:41:38;102323.50;;;6.04;59.01
45888;BME280;31595;51.418;7.572;2023-01-24T00:44:05;102332.66;;;6.05;58.95
45888;BME280;31595;51.418;7.572;2023-01-24T00:46:32;102339.13;;;6.10;59.05
45888;BME280;31595;51.418;7.572;2023-01-24T00:48:59;102330.72;;;6.05;58.35
45888;BME280;31595;51.418;7.572;2023-01-24T00:51:27;102331.78;;;6.04;58.51
45888;BME280;31595;51.418;7.572;2023-01-24T00:53:54;102330.97;;;6.04;58.72
45888;BME280;31595;51.418;7.572;2023-01-24T00:56:23;102334.44;;;5.99;58.58
45888;BME280;31595;51.418;7.572;2023-01-24T00:58:50;102325.53;;;5.97;58.21
45888;BME280;31595;51.418;7.572;2023-01-24T01:01:18;102329.38;;;5.96;58.19
45888;BME280;31595;51.418;7.572;2023-01-24T01:03:48;102316.91;;;6.05;58.10
45888;BME280;31595;51.418;7.572;2023-01-24T01:06:15;102320.13;;;6.02;58.76
45888;BME280;31595;51.418;7.572;2023-01-24T01:08:42;102318.22;;;6.03;58.70
45888;BME280;31595;51.418;7.572;2023-01-24T01:11:10;102313.03;;;6.06;58.29
45888;BME280;31595;51.418;7.572;2023-01-24T01:13:41;102323.25;;;6.06;57.88
45888;BME280;31595;51.418;7.572;2023-01-24T01:16:10;102325.81;;;6.07;58.41
45888;BME280;31595;51.418;7.572;2023-01-24T01:18:38;102321.34;;;6.06;58.24
45888;BME280;31595;51.418;7.572;2023-01-24T01:21:05;102322.44;;;6.05;58.66
45888;BME280;31595;51.418;7.572;2023-01-24T01:23:33;102326.41;;;6.09;58.33
45888;BME280;31595;51.418;7.572;2023-01-24T01:26:01;102325.97;;;5.94;58.56
45888;BME280;31595;51.418;7.572;2023-01-24T01:28:29;102319.06;;;6.03;58.58
45888;BME280;31595;51.418;7.572;2023-01-24T01:30:58;102325.19;;;6.05;58.13
45888;BME280;31595;51.418;7.572;2023-01-24T01:33:25;102330.59;;;6.12;58.39
45888;BME280;31595;51.418;7.572;2023-01-24T01:35:53;102340.00;;;6.11;58.97
45888;BME280;31595;51.418;7.572;2023-01-24T01:38:20;102339.13;;;6.10;58.51
45888;BME280;31595;51.418;7.572;2023-01-24T01:40:50;102336.75;;;6.14;58.37
45888;BME280;31595;51.418;7.572;2023-01-24T01:43:18;102343.59;;;6.12;58.35
45888;BME280;31595;51.418;7.572;2023-01-24T01:45:47;102343.59;;;6.12;57.84
45888;BME280;31595;51.418;7.572;2023-01-24T01:48:19;102343.72;;;6.05;57.55
45888;BME280;31595;51.418;7.572;2023-01-24T01:50:53;102341.31;;;6.08;57.73
45888;BME280;31595;51.418;7.572;2023-01-24T01:53:24;102343.22;;;6.08;57.71
45888;BME280;31595;51.418;7.572;2023-01-24T01:55:55;102334.69;;;6.09;57.99
45888;BME280;31595;51.418;7.572;2023-01-24T01:58:26;102343.13;;;6.15;58.28
45888;BME280;31595;51.418;7.572;2023-01-24T02:00:54;102338.69;;;6.14;57.45
45888;BME280;31595;51.418;7.572;2023-01-24T02:03:35;102346.38;;;6.12;57.14
45888;BME280;31595;51.418;7.572;2023-01-24T02:06:22;102343.22;;;6.08;57.07
45888;BME280;31595;51.418;7.572;2023-01-24T02:08:53;102334.22;;;6.13;57.10
45888;BME280;31595;51.418;7.572;2023-01-24T02:11:21;102335.06;;;6.01;57.32
45888;BME280;31595;51.418;7.572;2023-01-24T02:14:09;102328.91;;;5.99;57.55
45888;BME280;31595;51.418;7.572;2023-01-24T02:16:54;102335.50;;;5.98;57.04
45888;BME280;31595;51.418;7.572;2023-01-24T02:22:28;102327.97;;;6.05;57.30
45888;BME280;31595;51.418;7.572;2023-01-24T02:25:03;102332.41;;;6.06;57.15
45888;BME280;31595;51.418;7.572;2023-01-24T02:27:33;102330.22;;;6.08;56.84
45888;BME280;31595;51.418;7.572;2023-01-24T02:30:01;102328.41;;;6.02;57.02
45888;BME280;31595;51.418;7.572;2023-01-24T02:32:28;102332.50;;;6.00;57.26
45888;BME280;31595;51.418;7.572;2023-01-24T02:34:55;102330.59;;;6.00;57.17
45888;BME280;31595;51.418;7.572;2023-01-24T02:37:24;102322.16;;;5.95;56.78
45888;BME280;31595;51.418;7.572;2023-01-24T02:39:56;102315.28;;;5.86;57.20
45888;BME280;31595;51.418;7.572;2023-01-24T02:42:30;102320.94;;;5.91;56.41
45888;BME280;31595;51.418;7.572;2023-01-24T02:45:02;102323.66;;;5.79;57.51
45888;BME280;31595;51.418;7.572;2023-01-24T02:47:34;102320.19;;;5.84;56.70
45888;BME280;31595;51.418;7.572;2023-01-24T02:50:03;102321.00;;;5.73;57.42
45888;BME280;31595;51.418;7.572;2023-01-24T02:52:30;102315.69;;;5.71;57.50
45888;BME280;31595;51.418;7.572;2023-01-24T02:55:15;102317.50;;;5.65;57.33
45888;BME280;31595;51.418;7.572;2023-01-24T02:57:42;102310.59;;;5.56;57.41
45888;BME280;31595;51.418;7.572;2023-01-24T03:00:28;102316.75;;;5.58;57.74
45888;BME280;31595;51.418;7.572;2023-01-24T03:02:55;102315.06;;;5.57;57.94
45888;BME280;31595;51.418;7.572;2023-01-24T03:05:23;102309.78;;;5.56;58.31
45888;BME280;31595;51.418;7.572;2023-01-24T03:07:50;102304.75;;;5.64;58.07
45888;BME280;31595;51.418;7.572;2023-01-24T03:10:18;102304.28;;;5.67;57.85
45888;BME280;31595;51.418;7.572;2023-01-24T03:12:45;102310.78;;;5.73;58.16
45888;BME280;31595;51.418;7.572;2023-01-24T03:15:32;102299.03;;;5.78;58.12
45888;BME280;31595;51.418;7.572;2023-01-24T03:18:16;102296.88;;;5.80;58.00
45888;BME280;31595;51.418;7.572;2023-01-24T03:21:04;102306.22;;;5.79;58.07
45888;BME280;31595;51.418;7.572;2023-01-24T03:23:48;102297.47;;;5.82;57.94
45888;BME280;31595;51.418;7.572;2023-01-24T03:26:33;102301.91;;;5.83;57.33
45888;BME280;31595;51.418;7.572;2023-01-24T03:29:17;102309.59;;;5.81;57.41
45888;BME280;31595;51.418;7.572;2023-01-24T03:32:04;102304.56;;;5.78;57.21
45888;BME280;31595;51.418;7.572;2023-01-24T03:34:48;102308.16;;;5.78;57.63
45888;BME280;31595;51.418;7.572;2023-01-24T03:37:16;102310.53;;;5.75;57.39
45888;BME280;31595;51.418;7.572;2023-01-24T03:40:07;102299.03;;;5.78;58.01
45888;BME280;31595;51.418;7.572;2023-01-24T03:42:34;102302.41;;;5.80;58.17
45888;BME280;31595;51.418;7.572;2023-01-24T03:45:05;102302.13;;;5.81;57.85
45888;BME280;31595;51.418;7.572;2023-01-24T03:47:46;102297.22;;;5.83;57.93
45888;BME280;31595;51.418;7.572;2023-01-24T03:50:24;102299.47;;;5.75;57.79
45888;BME280;31595;51.418;7.572;2023-01-24T03:53:09;102302.13;;;5.69;57.92
45888;BME280;31595;51.418;7.572;2023-01-24T03:55:37;102306.78;;;5.69;58.11
45888;BME280;31595;51.418;7.572;2023-01-24T03:58:05;102308.28;;;5.72;58.00
45888;BME280;31595;51.418;7.572;2023-01-24T04:00:33;102305.13;;;5.68;58.03
45888;BME280;31595;51.418;7.572;2023-01-24T04:03:02;102307.78;;;5.75;58.17
45888;BME280;31595;51.418;7.572;2023-01-24T04:05:31;102307.56;;;5.76;57.84
45888;BME280;31595;51.418;7.572;2023-01-24T04:07:59;102299.25;;;5.76;57.36
45888;BME280;31595;51.418;7.572;2023-01-24T04:10:26;102297.06;;;5.66;57.63
45888;BME280;31595;51.418;7.572;2023-01-24T04:12:54;102292.97;;;5.69;58.18
45888;BME280;31595;51.418;7.572;2023-01-24T04:15:23;102290.59;;;5.73;57.73
45888;BME280;31595;51.418;7.572;2023-01-24T04:17:52;102293.94;;;5.75;57.97
45888;BME280;31595;51.418;7.572;2023-01-24T04:20:27;102299.00;;;5.66;58.19
45888;BME280;31595;51.418;7.572;2023-01-24T04:22:55;102290.31;;;5.62;58.28
45888;BME280;31595;51.418;7.572;2023-01-24T04:25:23;102289.16;;;5.70;57.96
45888;BME280;31595;51.418;7.572;2023-01-24T04:27:50;102291.69;;;5.72;58.13
45888;BME280;31595;51.418;7.572;2023-01-24T04:30:17;102294.44;;;5.72;58.10
45888;BME280;31595;51.418;7.572;2023-01-24T04:32:44;102290.22;;;5.69;58.33
45888;BME280;31595;51.418;7.572;2023-01-24T04:35:15;102294.19;;;5.61;58.08
45888;BME280;31595;51.418;7.572;2023-01-24T04:37:44;102296.09;;;5.61;58.38
45888;BME280;31595;51.418;7.572;2023-01-24T04:40:13;102298.50;;;5.57;58.19
45888;BME280;31595;51.418;7.572;2023-01-24T04:42:41;102295.94;;;5.56;58.28
45888;BME280;31595;51.418;7.572;2023-01-24T04:45:09;102287.44;;;5.57;58.24
45888;BME280;31595;51.418;7.572;2023-01-24T04:47:37;102291.19;;;5.63;58.16
45888;BME280;31595;51.418;7.572;2023-01-24T04:50:05;102292.25;;;5.62;58.32
45888;BME280;31595;51.418;7.572;2023-01-24T04:52:32;102296.72;;;5.63;58.55
45888;BME280;31595;51.418;7.572;2023-01-24T04:55:01;102305.34;;;5.66;58.57
45888;BME280;31595;51.418;7.572;2023-01-24T04:57:28;102309.81;;;5.67;58.27
45888;BME280;31595;51.418;7.572;2023-01-24T04:59:55;102306.66;;;5.64;58.30
45888;BME280;31595;51.418;7.572;2023-01-24T05:02:23;102308.50;;;5.70;59.46
45888;BME280;31595;51.418;7.572;2023-01-24T05:04:50;102315.25;;;5.74;59.89
45888;BME280;31595;51.418;7.572;2023-01-24T05:07:17;102307.56;;;5.76;58.87
45888;BME280;31595;51.418;7.572;2023-01-24T05:09:44;102313.19;;;5.69;58.50
45888;BME280;31595;51.418;7.572;2023-01-24T05:12:13;102306.09;;;5.74;58.36
45888;BME280;31595;51.418;7.572;2023-01-24T05:14:44;102309.22;;;5.77;58.21
45888;BME280;31595;51.418;7.572;2023-01-24T05:17:11;102311.38;;;5.75;57.61
45888;BME280;31595;51.418;7.572;2023-01-24T05:19:38;102311.88;;;5.72;57.66
45888;BME280;31595;51.418;7.572;2023-01-24T05:22:06;102311.38;;;5.75;58.01
45888;BME280;31595;51.418;7.572;2023-01-24T05:24:33;102315.13;;;5.81;57.37
45888;BME280;31595;51.418;7.572;2023-01-24T05:27:00;102313.31;;;5.75;57.65
45888;BME280;31595;51.418;7.572;2023-01-24T05:29:29;102306.72;;;5.76;57.67
45888;BME280;31595;51.418;7.572;2023-01-24T05:31:56;102316.06;;;5.75;57.53
45888;BME280;31595;51.418;7.572;2023-01-24T05:34:26;102325.19;;;5.75;57.50
45888;BME280;31595;51.418;7.572;2023-01-24T05:36:53;102319.94;;;5.74;57.38
45888;BME280;31595;51.418;7.572;2023-01-24T05:39:21;102313.41;;;5.68;57.74
45888;BME280;31595;51.418;7.572;2023-01-24T05:41:48;102317.97;;;5.62;57.38
45888;BME280;31595;51.418;7.572;2023-01-24T05:44:15;102320.03;;;5.67;57.70
45888;BME280;31595;51.418;7.572;2023-01-24T05:46:44;102327.00;;;5.69;57.87
45888;BME280;31595;51.418;7.572;2023-01-24T05:49:11;102323.88;;;5.66;57.56
45888;BME280;31595;51.418;7.572;2023-01-24T05:51:38;102328.19;;;5.62;57.57
45888;BME280;31595;51.418;7.572;2023-01-24T05:54:06;102329.41;;;5.66;57.38
45888;BME280;31595;51.418;7.572;2023-01-24T05:56:33;102330.22;;;5.66;57.36
45888;BME280;31595;51.418;7.572;2023-01-24T05:59:01;102328.56;;;5.65;57.52
45888;BME280;31595;51.418;7.572;2023-01-24T06:01:28;102329.94;;;5.56;57.54
45888;BME280;31595;51.418;7.572;2023-01-24T06:03:56;102331.84;;;5.44;58.01
45888;BME280;31595;51.418;7.572;2023-01-24T06:06:24;102332.47;;;5.46;57.57
45888;BME280;31595;51.418;7.572;2023-01-24T06:08:52;102341.81;;;5.45;57.70
45888;BME280;31595;51.418;7.572;2023-01-24T06:11:22;102344.72;;;5.50;57.76
45888;BME280;31595;51.418;7.572;2023-01-24T06:13:50;102343.16;;;5.54;57.97
45888;BME280;31595;51.418;7.572;2023-01-24T06:16:19;102340.41;;;5.54;58.21
45888;BME280;31595;51.418;7.572;2023-01-24T06:18:48;102351.63;;;5.59;57.99
45888;BME280;31595;51.418;7.572;2023-01-24T06:21:24;102358.75;;;5.67;58.12
45888;BME280;31595;51.418;7.572;2023-01-24T06:23:55;102366.78;;;5.68;57.89
45888;BME280;31595;51.418;7.572;2023-01-24T06:26:23;102361.63;;;5.72;57.60
45888;BME280;31595;51.418;7.572;2023-01-24T06:28:51;102355.28;;;5.72;57.76
45888;BME280;31595;51.418;7.572;2023-01-24T06:31:26;102362.47;;;5.73;57.67
45888;BME280;31595;51.418;7.572;2023-01-24T06:34:14;102362.00;;;5.76;57.87
45888;BME280;31595;51.418;7.572;2023-01-24T06:36:55;102369.94;;;5.72;57.66
45888;BME280;31595;51.418;7.572;2023-01-24T06:39:26;102374.38;;;5.73;57.66
45888;BME280;31595;51.418;7.572;2023-01-24T06:41:54;102378.84;;;5.74;57.32
45888;BME280;31595;51.418;7.572;2023-01-24T06:44:22;102375.56;;;5.65;57.40
45888;BME280;31595;51.418;7.572;2023-01-24T06:46:50;102380.00;;;5.66;57.53
45888;BME280;31595;51.418;7.572;2023-01-24T06:49:17;102383.84;;;5.65;57.59
45888;BME280;31595;51.418;7.572;2023-01-24T06:51:49;102388.91;;;5.68;57.50
45888;BME280;31595;51.418;7.572;2023-01-24T06:54:20;102392.75;;;5.67;57.55
45888;BME280;31595;51.418;7.572;2023-01-24T06:56:47;102392.88;;;5.73;56.91
45888;BME280;31595;51.418;7.572;2023-01-24T06:59:15;102392.44;;;5.76;57.16
45888;BME280;31595;51.418;7.572;2023-01-24T07:01:51;102393.88;;;5.78;57.30
45888;BME280;31595;51.418;7.572;2023-01-24T07:04:18;102398.91;;;5.69;57.24
45888;BME280;31595;51.418;7.572;2023-01-24T07:06:45;102395.63;;;5.61;57.21
45888;BME280;31595;51.418;7.572;2023-01-24T07:09:19;102399.97;;;5.68;57.45
45888;BME280;31595;51.418;7.572;2023-01-24T07:11:47;102401.28;;;5.66;57.04
45888;BME280;31595;51.418;7.572;2023-01-24T07:14:18;102402.13;;;5.66;57.06
45888;BME280;31595;51.418;7.572;2023-01-24T07:16:46;102409.66;;;5.59;57.43
45888;BME280;31595;51.418;7.572;2023-01-24T07:19:15;102407.91;;;5.65;57.30
45888;BME280;31595;51.418;7.572;2023-01-24T07:21:47;102406.91;;;5.59;57.56
45888;BME280;31595;51.418;7.572;2023-01-24T07:24:17;102412.81;;;5.63;57.40
45888;BME280;31595;51.418;7.572;2023-01-24T07:26:47;102400.88;;;5.62;57.52
45888;BME280;31595;51.418;7.572;2023-01-24T07:29:22;102405.97;;;5.65;57.63
45888;BME280;31595;51.418;7.572;2023-01-24T07:31:54;102408.13;;;5.63;57.13
45888;BME280;31595;51.418;7.572;2023-01-24T07:34:22;102410.06;;;5.63;57.40
45888;BME280;31595;51.418;7.572;2023-01-24T07:36:52;102408.88;;;5.70;57.17
45888;BME280;31595;51.418;7.572;2023-01-24T07:39:19;102405.75;;;5.67;57.12
45888;BME280;31595;51.418;7.572;2023-01-24T07:41:48;102415.00;;;5.73;57.37
45888;BME280;31595;51.418;7.572;2023-01-24T07:44:16;102416.09;;;5.72;57.12
45888;BME280;31595;51.418;7.572;2023-01-24T07:46:44;102413.34;;;5.72;56.84
45888;BME280;31595;51.418;7.572;2023-01-24T07:49:11;102415.63;;;5.75;56.86
45888;BME280;31595;51.418;7.572;2023-01-24T07:51:38;102425.22;;;5.72;56.80
45888;BME280;31595;51.418;7.572;2023-01-24T07:54:06;102419.00;;;5.77;56.68
45888;BME280;31595;51.418;7.572;2023-01-24T07:56:36;102427.06;;;5.78;56.36
45888;BME280;31595;51.418;7.572;2023-01-24T07:59:05;102437.13;;;5.73;56.98
45888;BME280;31595;51.418;7.572;2023-01-24T08:01:32;102436.81;;;5.81;56.95
45888;BME280;31595;51.418;7.572;2023-01-24T08:03:59;102429.72;;;5.85;56.38
45888;BME280;31595;51.418;7.572;2023-01-24T08:06:27;102432.50;;;5.85;56.19
45888;BME280;31595;51.418;7.572;2023-01-24T08:08:54;102436.06;;;5.74;56.95
45888;BME280;31595;51.418;7.572;2023-01-24T08:11:21;102435.28;;;5.66;56.84
45888;BME280;31595;51.418;7.572;2023-01-24T08:13:48;102444.06;;;5.63;57.09
45888;BME280;31595;51.418;7.572;2023-01-24T08:16:18;102442.19;;;5.76;56.76
45888;BME280;31595;51.418;7.572;2023-01-24T08:18:49;102440.88;;;5.78;56.69
45888;BME280;31595;51.418;7.572;2023-01-24T08:21:16;102443.16;;;5.81;56.41
45888;BME280;31595;51.418;7.572;2023-01-24T08:23:44;102445.59;;;5.89;56.59
45888;BME280;31595;51.418;7.572;2023-01-24T08:26:11;102452.00;;;5.90;56.53
45888;BME280;31595;51.418;7.572;2023-01-24T08:28:38;102450.31;;;5.89;56.66
45888;BME280;31595;51.418;7.572;2023-01-24T08:31:06;102461.91;;;5.98;56.32
45888;BME280;31595;51.418;7.572;2023-01-24T08:33:34;102456.28;;;6.04;56.20
45888;BME280;31595;51.418;7.572;2023-01-24T08:36:04;102456.66;;;6.08;55.91
45888;BME280;31595;51.418;7.572;2023-01-24T08:38:32;102449.56;;;6.12;56.07
45888;BME280;31595;51.418;7.572;2023-01-24T08:41:02;102453.78;;;6.03;55.33
45888;BME280;31595;51.418;7.572;2023-01-24T08:43:29;102454.63;;;5.85;56.03
45888;BME280;31595;51.418;7.572;2023-01-24T08:45:57;102457.16;;;5.86;55.95
45888;BME280;31595;51.418;7.572;2023-01-24T08:48:24;102455.94;;;5.82;55.89
45888;BME280;31595;51.418;7.572;2023-01-24T08:50:56;102459.75;;;5.81;56.00
45888;BME280;31595;51.418;7.572;2023-01-24T08:53:23;102465.22;;;5.88;56.02
45888;BME280;31595;51.418;7.572;2023-01-24T08:55:50;102464.50;;;5.93;55.76
45888;BME280;31595;51.418;7.572;2023-01-24T08:58:18;102471.22;;;5.66;56.08
45888;BME280;31595;51.418;7.572;2023-01-24T09:00:46;102467.00;;;5.64;56.48
45888;BME280;31595;51.418;7.572;2023-01-24T09:03:16;102456.38;;;5.79;56.81
45888;BME280;31595;51.418;7.572;2023-01-24T09:05:44;102459.19;;;6.09;56.14
45888;BME280;31595;51.418;7.572;2023-01-24T09:08:12;102458.53;;;6.26;55.64
45888;BME280;31595;51.418;7.572;2023-01-24T09:10:40;102461.31;;;6.38;56.02
45888;BME280;31595;51.418;7.572;2023-01-24T09:13:07;102459.31;;;6.57;55.04
45888;BME280;31595;51.418;7.572;2023-01-24T09:15:34;102461.50;;;6.66;55.31
45888;BME280;31595;51.418;7.572;2023-01-24T09:18:02;102467.50;;;6.75;54.89
45888;BME280;31595;51.418;7.572;2023-01-24T09:20:29;102471.50;;;6.79;54.14
45888;BME280;31595;51.418;7.572;2023-01-24T09:22:57;102473.31;;;6.85;53.55
45888;BME280;31595;51.418;7.572;2023-01-24T09:25:25;102473.53;;;6.84;53.03
45888;BME280;31595;51.418;7.572;2023-01-24T09:27:53;102481.47;;;6.80;53.00
45888;BME280;31595;51.418;7.572;2023-01-24T09:30:21;102480.88;;;6.66;53.98
45888;BME280;31595;51.418;7.572;2023-01-24T09:32:49;102486.75;;;6.58;53.83
45888;BME280;31595;51.418;7.572;2023-01-24T09:35:17;102487.25;;;6.55;53.64
45888;BME280;31595;51.418;7.572;2023-01-24T09:37:44;102494.34;;;6.51;53.25
45888;BME280;31595;51.418;7.572;2023-01-24T09:40:18;102489.69;;;6.33;54.30
45888;BME280;31595;51.418;7.572;2023-01-24T09:42:56;102489.44;;;6.23;54.16
45888;BME280;31595;51.418;7.572;2023-01-24T09:45:29;102490.41;;;6.28;55.09
45888;BME280;31595;51.418;7.572;2023-01-24T09:48:00;102494.78;;;6.48;54.86
45888;BME280;31595;51.418;7.572;2023-01-24T09:50:32;102496.25;;;6.50;54.77
45888;BME280;31595;51.418;7.572;2023-01-24T09:53:03;102491.84;;;6.73;53.83
45888;BME280;31595;51.418;7.572;2023-01-24T09:55:34;102498.47;;;6.84;53.98
45888;BME280;31595;51.418;7.572;2023-01-24T09:58:04;102504.25;;;6.94;53.17
45888;BME280;31595;51.418;7.572;2023-01-24T10:00:36;102499.69;;;7.00;53.15
45888;BME280;31595;51.418;7.572;2023-01-24T10:03:18;102501.38;;;7.13;52.79
45888;BME280;31595;51.418;7.572;2023-01-24T10:05:47;102500.03;;;7.15;52.51
45888;BME280;31595;51.418;7.572;2023-01-24T10:08:18;102496.06;;;7.11;53.27
45888;BME280;31595;51.418;7.572;2023-01-24T10:10:53;102490.53;;;7.11;53.11
45888;BME280;31595;51.418;7.572;2023-01-24T10:13:41;102498.56;;;7.24;51.98
45888;BME280;31595;51.418;7.572;2023-01-24T10:19:10;102499.09;;;7.33;53.18
45888;BME280;31595;51.418;7.572;2023-01-24T10:21:55;102502.19;;;7.37;52.54
45888;BME280;31595;51.418;7.572;2023-01-24T10:24:29;102492.66;;;7.44;52.15
45888;BME280;31595;51.418;7.572;2023-01-24T10:26:59;102496.03;;;7.46;52.13
45888;BME280;31595;51.418;7.572;2023-01-24T10:29:30;102492.16;;;7.59;51.67
45888;BME280;31595;51.418;7.572;2023-01-24T10:32:00;102500.59;;;7.64;51.69
45888;BME280;31595;51.418;7.572;2023-01-24T10:34:32;102491.78;;;7.67;50.69
45888;BME280;31595;51.418;7.572;2023-01-24T10:37:04;102491.88;;;7.72;51.85
45888;BME280;31595;51.418;7.572;2023-01-24T10:39:32;102481.97;;;7.77;50.57
45888;BME280;31595;51.418;7.572;2023-01-24T10:42:00;102484.94;;;7.87;50.44
45888;BME280;31595;51.418;7.572;2023-01-24T10:44:35;102489.75;;;7.91;51.40
45888;BME280;31595;51.418;7.572;2023-01-24T10:47:26;102482.38;;;7.97;50.30
45888;BME280;31595;51.418;7.572;2023-01-24T10:50:05;102477.31;;;7.65;51.76
45888;BME280;31595;51.418;7.572;2023-01-24T10:52:32;102472.81;;;7.76;52.10
45888;BME280;31595;51.418;7.572;2023-01-24T10:55:01;102474.25;;;7.79;51.91
45888;BME280;31595;51.418;7.572;2023-01-24T10:57:39;102481.34;;;7.86;50.31
45888;BME280;31595;51.418;7.572;2023-01-24T11:00:24;102479.69;;;7.73;51.88
45888;BME280;31595;51.418;7.572;2023-01-24T11:02:55;102471.25;;;7.68;50.68
45888;BME280;31595;51.418;7.572;2023-01-24T11:05:24;102478.13;;;7.78;51.35
45888;BME280;31595;51.418;7.572;2023-01-24T11:07:52;102476.31;;;7.83;51.86
45888;BME280;31595;51.418;7.572;2023-01-24T11:10:23;102465.19;;;7.83;52.00
45888;BME280;31595;51.418;7.572;2023-01-24T11:12:53;102470.09;;;7.93;51.57
45888;BME280;31595;51.418;7.572;2023-01-24T11:15:25;102454.16;;;8.00;50.30
45888;BME280;31595;51.418;7.572;2023-01-24T11:17:55;102458.78;;;8.11;51.06
45888;BME280;31595;51.418;7.572;2023-01-24T11:20:28;102464.03;;;8.25;50.69
45888;BME280;31595;51.418;7.572;2023-01-24T11:23:04;102460.25;;;8.31;49.46
45888;BME280;31595;51.418;7.572;2023-01-24T11:25:31;102463.84;;;8.31;50.56
45888;BME280;31595;51.418;7.572;2023-01-24T11:27:59;102468.00;;;8.29;51.04
45888;BME280;31595;51.418;7.572;2023-01-24T11:30:28;102463.34;;;8.46;49.19
45888;BME280;31595;51.418;7.572;2023-01-24T11:33:11;102463.59;;;8.62;49.82
45888;BME280;31595;51.418;7.572;2023-01-24T11:35:45;102460.47;;;8.58;49.97
45888;BME280;31595;51.418;7.572;2023-01-24T11:38:16;102464.22;;;8.35;48.22
45888;BME280;31595;51.418;7.572;2023-01-24T11:41:05;102458.59;;;8.30;49.00
45888;BME280;31595;51.418;7.572;2023-01-24T11:43:50;102454.81;;;8.36;48.67
45888;BME280;31595;51.418;7.572;2023-01-24T11:46:36;102455.41;;;8.38;49.72
45888;BME280;31595;51.418;7.572;2023-01-24T11:49:28;102443.50;;;8.26;48.15
45888;BME280;31595;51.418;7.572;2023-01-24T11:52:07;102454.69;;;7.85;49.70
45888;BME280;31595;51.418;7.572;2023-01-24T11:54:46;102439.97;;;7.85;49.09
45888;BME280;31595;51.418;7.572;2023-01-24T11:57:27;102449.31;;;7.96;50.90
45888;BME280;31595;51.418;7.572;2023-01-24T12:00:18;102438.25;;;8.12;50.34
45888;BME280;31595;51.418;7.572;2023-01-24T12:03:05;102438.78;;;8.09;50.15
45888;BME280;31595;51.418;7.572;2023-01-24T12:05:48;102430.81;;;8.30;49.17
45888;BME280;31595;51.418;7.572;2023-01-24T12:08:31;102431.44;;;8.49;49.71
45888;BME280;31595;51.418;7.572;2023-01-24T12:11:12;102425.06;;;8.48;49.82
45888;BME280;31595;51.418;7.572;2023-01-24T12:13:47;102424.16;;;8.31;48.21
45888;BME280;31595;51.418;7.572;2023-01-24T12:16:25;102420.69;;;8.07;50.08
45888;BME280;31595;51.418;7.572;2023-01-24T12:19:22;102422.91;;;8.22;49.12
45888;BME280;31595;51.418;7.572;2023-01-24T12:21:54;102418.53;;;8.26;48.83
45888;BME280;31595;51.418;7.572;2023-01-24T12:24:25;102421.38;;;8.31;48.39
45888;BME280;31595;51.418;7.572;2023-01-24T12:26:56;102419.53;;;8.37;48.82
45888;BME280;31595;51.418;7.572;2023-01-24T12:29:29;102412.56;;;8.34;48.94
45888;BME280;31595;51.418;7.572;2023-01-24T12:32:01;102411.03;;;8.26;49.65
45888;BME280;31595;51.418;7.572;2023-01-24T12:34:40;102403.72;;;8.37;49.60
45888;BME280;31595;51.418;7.572;2023-01-24T12:37:14;102400.34;;;8.35;49.17
45888;BME280;31595;51.418;7.572;2023-01-24T12:39:49;102403.22;;;8.40;49.32
45888;BME280;31595;51.418;7.572;2023-01-24T12:42:23;102385.00;;;8.44;48.48
45888;BME280;31595;51.418;7.572;2023-01-24T12:44:56;102388.16;;;8.36;49.47
45888;BME280;31595;51.418;7.572;2023-01-24T12:47:32;102395.25;;;8.44;50.15
45888;BME280;31595;51.418;7.572;2023-01-24T12:50:15;102383.41;;;8.48;48.94
45888;BME280;31595;51.418;7.572;2023-01-24T12:52:54;102378.66;;;8.32;48.41
45888;BME280;31595;51.418;7.572;2023-01-24T12:55:28;102381.91;;;8.12;49.17
45888;BME280;31595;51.418;7.572;2023-01-24T12:58:01;102390.78;;;8.26;50.39
45888;BME280;31595;51.418;7.572;2023-01-24T13:00:40;102375.47;;;8.40;49.27
45888;BME280;31595;51.418;7.572;2023-01-24T13:03:24;102373.75;;;8.39;49.54
45888;BME280;31595;51.418;7.572;2023-01-24T13:06:02;102374.97;;;8.43;48.19
45888;BME280;31595;51.418;7.572;2023-01-24T13:08:49;102374.13;;;8.43;48.70
45888;BME280;31595;51.418;7.572;2023-01-24T13:11:20;102369.03;;;8.40;49.19
45888;BME280;31595;51.418;7.572;2023-01-24T13:13:59;102368.03;;;8.29;49.17
45888;BME280;31595;51.418;7.572;2023-01-24T13:16:57;102371.41;;;8.31;49.88
45888;BME280;31595;51.418;7.572;2023-01-24T13:19:36;102371.59;;;8.41;48.97
45888;BME280;31595;51.418;7.572;2023-01-24T13:22:17;102377.53;;;8.33;49.38
45888;BME280;31595;51.418;7.572;2023-01-24T13:24:57;102372.59;;;8.35;49.06
45888;BME280;31595;51.418;7.572;2023-01-24T13:27:35;102370.91;;;8.17;49.33
45888;BME280;31595;51.418;7.572;2023-01-24T13:30:23;102376.53;;;8.22;48.37